AAL3579 KLAX-KPHX
Flight info
| Callsign | AAL3579 |
|---|---|
| Flight time | 0h 59m |
| Altitude | 35000 |
| Route | DOTSS2 CNERY BLH HYDRR1 |
| Aircraft | B738/M-SDE2E3FGHIRWXY/LB1 |
Departure
| Time | 2026-04-26 07:43 |
|---|---|
| Airport | Los Angeles International Airport (KLAX) |
Arrival
| Time | 2026-04-26 08:42 |
|---|---|
| Airport | Phoenix Sky Harbor International Airport (KPHX) |
| Time | Latitude | Longitude | Altitude | Speed | Heading |
|---|---|---|---|---|---|
| 2026-04-26 06:48 | 33.94047 | -118.40748 | 124 ft | 0 kts | 100° |
| 2026-04-26 07:24 | 33.94049 | -118.40762 | 124 ft | 2 kts | 98° |
| 2026-04-26 07:24 | 33.94051 | -118.40780 | 124 ft | 2 kts | 102° |
| 2026-04-26 07:24 | 33.94057 | -118.40797 | 125 ft | 2 kts | 118° |
| 2026-04-26 07:24 | 33.94065 | -118.40812 | 125 ft | 2 kts | 130° |
| 2026-04-26 07:25 | 33.94075 | -118.40824 | 125 ft | 2 kts | 143° |
| 2026-04-26 07:25 | 33.94088 | -118.40834 | 125 ft | 2 kts | 156° |
| 2026-04-26 07:25 | 33.94103 | -118.40839 | 124 ft | 2 kts | 168° |
| 2026-04-26 07:25 | 33.94110 | -118.40841 | 124 ft | 1 kts | 175° |
| 2026-04-26 07:26 | 33.94112 | -118.40842 | 124 ft | 0 kts | 174° |
| 2026-04-26 07:26 | 33.94113 | -118.40842 | 124 ft | 0 kts | 173° |
| 2026-04-26 07:26 | 33.94112 | -118.40842 | 124 ft | 0 kts | 173° |
| 2026-04-26 07:27 | 33.94113 | -118.40842 | 124 ft | 0 kts | 173° |
| 2026-04-26 07:28 | 33.94112 | -118.40842 | 124 ft | 0 kts | 173° |
| 2026-04-26 07:30 | 33.94096 | -118.40839 | 124 ft | 9 kts | 172° |
| 2026-04-26 07:30 | 33.94008 | -118.40823 | 126 ft | 12 kts | 173° |
| 2026-04-26 07:31 | 33.93946 | -118.40814 | 126 ft | 7 kts | 173° |
| 2026-04-26 07:31 | 33.93905 | -118.40799 | 126 ft | 7 kts | 149° |
| 2026-04-26 07:31 | 33.93885 | -118.40748 | 126 ft | 7 kts | 89° |
| 2026-04-26 07:31 | 33.93896 | -118.40648 | 125 ft | 19 kts | 83° |
| 2026-04-26 07:32 | 33.93915 | -118.40448 | 122 ft | 25 kts | 84° |
| 2026-04-26 07:32 | 33.93933 | -118.40269 | 120 ft | 3 kts | 83° |
| 2026-04-26 07:32 | 33.93934 | -118.40263 | 120 ft | 0 kts | 83° |
| 2026-04-26 07:33 | 33.93937 | -118.40256 | 120 ft | 2 kts | 37° |
| 2026-04-26 07:33 | 33.93953 | -118.40264 | 120 ft | 3 kts | 298° |
| 2026-04-26 07:33 | 33.93950 | -118.40295 | 120 ft | 4 kts | 253° |
| 2026-04-26 07:34 | 33.93933 | -118.40335 | 120 ft | 7 kts | 248° |
| 2026-04-26 07:34 | 33.93919 | -118.40421 | 121 ft | 13 kts | 263° |
| 2026-04-26 07:34 | 33.93907 | -118.40537 | 123 ft | 13 kts | 263° |
| 2026-04-26 07:34 | 33.93895 | -118.40648 | 125 ft | 12 kts | 262° |
| 2026-04-26 07:35 | 33.93866 | -118.40730 | 126 ft | 9 kts | 227° |
| 2026-04-26 07:35 | 33.93872 | -118.40803 | 126 ft | 9 kts | 277° |
| 2026-04-26 07:35 | 33.93869 | -118.40879 | 126 ft | 9 kts | 252° |
| 2026-04-26 07:35 | 33.93825 | -118.40919 | 126 ft | 8 kts | 175° |
| 2026-04-26 07:36 | 33.93792 | -118.40866 | 126 ft | 8 kts | 94° |
| 2026-04-26 07:36 | 33.93800 | -118.40770 | 126 ft | 15 kts | 83° |
| 2026-04-26 07:36 | 33.93816 | -118.40621 | 126 ft | 19 kts | 83° |
| 2026-04-26 07:36 | 33.93833 | -118.40453 | 122 ft | 21 kts | 83° |
| 2026-04-26 07:37 | 33.93852 | -118.40271 | 120 ft | 22 kts | 83° |
| 2026-04-26 07:37 | 33.93871 | -118.40086 | 118 ft | 22 kts | 83° |
| 2026-04-26 07:37 | 33.93892 | -118.39889 | 114 ft | 24 kts | 83° |
| 2026-04-26 07:37 | 33.93913 | -118.39681 | 110 ft | 26 kts | 83° |
| 2026-04-26 07:38 | 33.93935 | -118.39466 | 109 ft | 26 kts | 83° |
| 2026-04-26 07:38 | 33.93958 | -118.39243 | 107 ft | 27 kts | 83° |
| 2026-04-26 07:38 | 33.93981 | -118.39015 | 104 ft | 27 kts | 83° |
| 2026-04-26 07:38 | 33.94004 | -118.38783 | 103 ft | 27 kts | 83° |
| 2026-04-26 07:39 | 33.94027 | -118.38556 | 103 ft | 27 kts | 83° |
| 2026-04-26 07:39 | 33.94043 | -118.38403 | 101 ft | 4 kts | 83° |
| 2026-04-26 07:39 | 33.94041 | -118.38358 | 101 ft | 6 kts | 86° |
| 2026-04-26 07:39 | 33.94054 | -118.38285 | 100 ft | 12 kts | 78° |
| 2026-04-26 07:40 | 33.94070 | -118.38148 | 100 ft | 18 kts | 83° |
| 2026-04-26 07:40 | 33.94075 | -118.38090 | 100 ft | 0 kts | 83° |
| 2026-04-26 07:41 | 33.94075 | -118.38088 | 100 ft | 1 kts | 83° |
| 2026-04-26 07:41 | 33.94066 | -118.38027 | 100 ft | 11 kts | 136° |
| 2026-04-26 07:42 | 33.93994 | -118.38028 | 100 ft | 11 kts | 234° |
| 2026-04-26 07:42 | 33.93974 | -118.38120 | 100 ft | 12 kts | 262° |
| 2026-04-26 07:42 | 33.93955 | -118.38295 | 100 ft | 32 kts | 263° |
| 2026-04-26 07:42 | 33.93890 | -118.38910 | 104 ft | 122 kts | 263° |
| 2026-04-26 07:43 | 33.93749 | -118.40230 | 382 ft | 181 kts | 263° |
| 2026-04-26 07:43 | 33.93573 | -118.41766 | 1375 ft | 198 kts | 262° |
| 2026-04-26 07:43 | 33.93350 | -118.43362 | 2621 ft | 196 kts | 262° |
| 2026-04-26 07:43 | 33.93258 | -118.45016 | 3334 ft | 210 kts | 269° |
| 2026-04-26 07:44 | 33.93069 | -118.46866 | 3295 ft | 237 kts | 257° |
| 2026-04-26 07:44 | 33.92481 | -118.48759 | 4319 ft | 249 kts | 245° |
| 2026-04-26 07:44 | 33.91585 | -118.50510 | 5146 ft | 258 kts | 236° |
| 2026-04-26 07:44 | 33.90366 | -118.52082 | 6347 ft | 263 kts | 225° |
| 2026-04-26 07:45 | 33.88919 | -118.53354 | 7691 ft | 262 kts | 216° |
| 2026-04-26 07:45 | 33.87345 | -118.54449 | 8814 ft | 267 kts | 213° |
| 2026-04-26 07:45 | 33.85699 | -118.55438 | 9968 ft | 271 kts | 207° |
| 2026-04-26 07:45 | 33.83888 | -118.56178 | 10872 ft | 285 kts | 200° |
| 2026-04-26 07:46 | 33.81872 | -118.56655 | 11597 ft | 305 kts | 193° |
| 2026-04-26 07:46 | 33.79704 | -118.56783 | 12285 ft | 325 kts | 184° |
| 2026-04-26 07:46 | 33.77403 | -118.56398 | 12909 ft | 349 kts | 171° |
| 2026-04-26 07:46 | 33.75081 | -118.55248 | 13711 ft | 368 kts | 156° |
| 2026-04-26 07:47 | 33.72934 | -118.53540 | 14622 ft | 379 kts | 148° |
| 2026-04-26 07:47 | 33.70908 | -118.51490 | 15495 ft | 388 kts | 143° |
| 2026-04-26 07:47 | 33.68955 | -118.49271 | 16349 ft | 397 kts | 137° |
| 2026-04-26 07:47 | 33.67385 | -118.46446 | 17187 ft | 411 kts | 120° |
| 2026-04-26 07:48 | 33.66331 | -118.43249 | 18016 ft | 420 kts | 111° |
| 2026-04-26 07:48 | 33.65496 | -118.39893 | 18844 ft | 426 kts | 108° |
| 2026-04-26 07:48 | 33.64835 | -118.36378 | 19603 ft | 435 kts | 101° |
| 2026-04-26 07:48 | 33.64552 | -118.32780 | 20378 ft | 441 kts | 94° |
| 2026-04-26 07:49 | 33.64453 | -118.29101 | 21063 ft | 449 kts | 92° |
| 2026-04-26 07:49 | 33.64418 | -118.25354 | 21809 ft | 454 kts | 92° |
| 2026-04-26 07:49 | 33.64410 | -118.21519 | 22516 ft | 460 kts | 91° |
| 2026-04-26 07:50 | 33.64424 | -118.13802 | 23934 ft | 469 kts | 91° |
| 2026-04-26 07:50 | 33.64431 | -118.09900 | 24461 ft | 477 kts | 91° |
| 2026-04-26 07:50 | 33.64435 | -118.05888 | 25007 ft | 483 kts | 92° |
| 2026-04-26 07:50 | 33.64437 | -118.01899 | 25598 ft | 488 kts | 92° |
| 2026-04-26 07:51 | 33.64436 | -117.97770 | 26139 ft | 493 kts | 92° |
| 2026-04-26 07:51 | 33.64431 | -117.93640 | 26600 ft | 501 kts | 92° |
| 2026-04-26 07:51 | 33.64425 | -117.89473 | 27165 ft | 505 kts | 92° |
| 2026-04-26 07:51 | 33.64384 | -117.85214 | 27582 ft | 512 kts | 94° |
| 2026-04-26 07:52 | 33.64192 | -117.80992 | 28137 ft | 513 kts | 99° |
| 2026-04-26 07:52 | 33.63699 | -117.76754 | 28500 ft | 517 kts | 105° |
| 2026-04-26 07:52 | 33.62911 | -117.72507 | 28991 ft | 519 kts | 110° |
| 2026-04-26 07:52 | 33.61966 | -117.68388 | 29479 ft | 521 kts | 112° |
| 2026-04-26 07:53 | 33.60914 | -117.64210 | 29950 ft | 524 kts | 113° |
| 2026-04-26 07:53 | 33.59813 | -117.59991 | 30583 ft | 523 kts | 114° |
| 2026-04-26 07:53 | 33.58740 | -117.55901 | 31205 ft | 522 kts | 114° |
| 2026-04-26 07:53 | 33.57660 | -117.51754 | 31893 ft | 519 kts | 114° |
| 2026-04-26 07:54 | 33.56587 | -117.47597 | 32381 ft | 521 kts | 114° |
| 2026-04-26 07:54 | 33.55511 | -117.43399 | 32909 ft | 521 kts | 114° |
| 2026-04-26 07:54 | 33.54451 | -117.39224 | 33448 ft | 521 kts | 113° |
| 2026-04-26 07:54 | 33.53415 | -117.35120 | 33923 ft | 522 kts | 113° |
| 2026-04-26 07:55 | 33.52380 | -117.30936 | 34414 ft | 522 kts | 112° |
| 2026-04-26 07:55 | 33.51491 | -117.26721 | 34811 ft | 523 kts | 109° |
| 2026-04-26 07:55 | 33.50420 | -117.18066 | 34915 ft | 528 kts | 99° |
| 2026-04-26 07:56 | 33.50071 | -117.09219 | 34927 ft | 541 kts | 95° |
| 2026-04-26 07:56 | 33.49991 | -117.00059 | 34943 ft | 551 kts | 94° |
| 2026-04-26 07:57 | 33.49952 | -116.90907 | 34934 ft | 553 kts | 94° |
| 2026-04-26 07:57 | 33.49874 | -116.81679 | 34899 ft | 549 kts | 95° |
| 2026-04-26 07:58 | 33.49750 | -116.72526 | 34900 ft | 552 kts | 95° |
| 2026-04-26 07:58 | 33.49601 | -116.63305 | 34894 ft | 553 kts | 95° |
| 2026-04-26 07:59 | 33.49437 | -116.54110 | 34888 ft | 549 kts | 95° |
| 2026-04-26 07:59 | 33.49265 | -116.44888 | 34882 ft | 551 kts | 96° |
| 2026-04-26 08:00 | 33.49101 | -116.35765 | 34874 ft | 551 kts | 95° |
| 2026-04-26 08:00 | 33.48965 | -116.26552 | 34873 ft | 553 kts | 96° |
| 2026-04-26 08:01 | 33.48827 | -116.17342 | 35028 ft | 555 kts | 96° |
| 2026-04-26 08:01 | 33.48760 | -116.12727 | 34888 ft | 552 kts | 95° |
| 2026-04-26 08:01 | 33.48822 | -116.08157 | 34872 ft | 553 kts | 91° |
| 2026-04-26 08:02 | 33.49937 | -115.99033 | 34839 ft | 560 kts | 79° |
| 2026-04-26 08:02 | 33.52175 | -115.90143 | 34824 ft | 563 kts | 72° |
| 2026-04-26 08:03 | 33.53476 | -115.85730 | 34677 ft | 565 kts | 71° |
| 2026-04-26 08:03 | 33.54827 | -115.81315 | 34785 ft | 564 kts | 71° |
| 2026-04-26 08:03 | 33.57545 | -115.72473 | 34820 ft | 565 kts | 71° |
| 2026-04-26 08:04 | 33.60125 | -115.63583 | 34822 ft | 564 kts | 74° |
| 2026-04-26 08:04 | 33.61621 | -115.54433 | 34819 ft | 558 kts | 90° |
| 2026-04-26 08:05 | 33.61766 | -115.45169 | 34808 ft | 552 kts | 97° |
| 2026-04-26 08:05 | 33.61469 | -115.35891 | 34805 ft | 557 kts | 98° |
| 2026-04-26 08:06 | 33.61115 | -115.26698 | 34812 ft | 553 kts | 99° |
| 2026-04-26 08:06 | 33.60793 | -115.17467 | 34821 ft | 554 kts | 98° |
| 2026-04-26 08:07 | 33.60509 | -115.08221 | 34811 ft | 556 kts | 97° |
| 2026-04-26 08:07 | 33.60247 | -114.98948 | 34813 ft | 554 kts | 97° |
| 2026-04-26 08:08 | 33.59990 | -114.89748 | 34812 ft | 554 kts | 97° |
| 2026-04-26 08:08 | 33.59692 | -114.80475 | 34807 ft | 545 kts | 99° |
| 2026-04-26 08:09 | 33.59381 | -114.76014 | 34744 ft | 526 kts | 103° |
| 2026-04-26 08:09 | 33.58869 | -114.71748 | 34449 ft | 514 kts | 108° |
| 2026-04-26 08:09 | 33.58180 | -114.67529 | 34006 ft | 507 kts | 111° |
| 2026-04-26 08:09 | 33.57400 | -114.63447 | 33427 ft | 505 kts | 112° |
| 2026-04-26 08:10 | 33.56577 | -114.59410 | 32801 ft | 505 kts | 113° |
| 2026-04-26 08:10 | 33.55722 | -114.55301 | 32173 ft | 504 kts | 114° |
| 2026-04-26 08:10 | 33.54884 | -114.51263 | 31547 ft | 503 kts | 113° |
| 2026-04-26 08:10 | 33.54053 | -114.47231 | 30911 ft | 503 kts | 113° |
| 2026-04-26 08:11 | 33.53224 | -114.43166 | 30275 ft | 502 kts | 113° |
| 2026-04-26 08:11 | 33.52404 | -114.39094 | 29626 ft | 500 kts | 113° |
| 2026-04-26 08:11 | 33.51606 | -114.35100 | 28987 ft | 498 kts | 112° |
| 2026-04-26 08:11 | 33.50813 | -114.31104 | 28354 ft | 494 kts | 113° |
| 2026-04-26 08:12 | 33.50024 | -114.27111 | 27729 ft | 490 kts | 112° |
| 2026-04-26 08:12 | 33.49246 | -114.23171 | 27116 ft | 485 kts | 112° |
| 2026-04-26 08:12 | 33.48476 | -114.19274 | 26496 ft | 481 kts | 112° |
| 2026-04-26 08:12 | 33.47709 | -114.15388 | 25899 ft | 477 kts | 112° |
| 2026-04-26 08:13 | 33.46948 | -114.11543 | 25279 ft | 472 kts | 112° |
| 2026-04-26 08:13 | 33.46198 | -114.07757 | 24854 ft | 463 kts | 112° |
| 2026-04-26 08:13 | 33.45475 | -114.04086 | 24811 ft | 445 kts | 113° |
| 2026-04-26 08:13 | 33.44783 | -114.00567 | 24800 ft | 431 kts | 113° |
| 2026-04-26 08:14 | 33.44080 | -113.97066 | 24810 ft | 435 kts | 114° |
| 2026-04-26 08:14 | 33.43374 | -113.93605 | 24806 ft | 433 kts | 113° |
| 2026-04-26 08:14 | 33.42645 | -113.90046 | 24809 ft | 439 kts | 113° |
| 2026-04-26 08:14 | 33.41934 | -113.86549 | 24810 ft | 434 kts | 113° |
| 2026-04-26 08:15 | 33.41224 | -113.83038 | 24813 ft | 436 kts | 113° |
| 2026-04-26 08:15 | 33.40504 | -113.79490 | 24809 ft | 437 kts | 113° |
| 2026-04-26 08:15 | 33.39794 | -113.75987 | 24816 ft | 437 kts | 114° |
| 2026-04-26 08:15 | 33.39082 | -113.72462 | 24814 ft | 434 kts | 113° |
| 2026-04-26 08:16 | 33.38371 | -113.68951 | 24808 ft | 434 kts | 113° |
| 2026-04-26 08:16 | 33.37661 | -113.65457 | 24798 ft | 437 kts | 114° |
| 2026-04-26 08:16 | 33.36944 | -113.61934 | 24452 ft | 435 kts | 113° |
| 2026-04-26 08:16 | 33.36235 | -113.58446 | 23802 ft | 436 kts | 113° |
| 2026-04-26 08:17 | 33.35517 | -113.54924 | 23200 ft | 434 kts | 113° |
| 2026-04-26 08:17 | 33.34814 | -113.51469 | 22646 ft | 432 kts | 112° |
| 2026-04-26 08:17 | 33.34101 | -113.47967 | 22091 ft | 429 kts | 112° |
| 2026-04-26 08:17 | 33.33419 | -113.44566 | 21835 ft | 419 kts | 111° |
| 2026-04-26 08:18 | 33.32805 | -113.41190 | 21811 ft | 410 kts | 111° |
| 2026-04-26 08:18 | 33.32240 | -113.37888 | 21808 ft | 411 kts | 110° |
| 2026-04-26 08:18 | 33.31668 | -113.34520 | 21808 ft | 415 kts | 110° |
| 2026-04-26 08:18 | 33.31095 | -113.31131 | 21791 ft | 415 kts | 110° |
| 2026-04-26 08:19 | 33.30519 | -113.27739 | 21560 ft | 415 kts | 110° |
| 2026-04-26 08:19 | 33.29954 | -113.24414 | 21307 ft | 407 kts | 110° |
| 2026-04-26 08:19 | 33.29413 | -113.21151 | 20990 ft | 400 kts | 109° |
| 2026-04-26 08:19 | 33.28920 | -113.17879 | 20527 ft | 398 kts | 108° |
| 2026-04-26 08:20 | 33.28464 | -113.14648 | 20018 ft | 397 kts | 108° |
| 2026-04-26 08:20 | 33.28014 | -113.11402 | 19502 ft | 395 kts | 107° |
| 2026-04-26 08:20 | 33.27612 | -113.08169 | 18995 ft | 396 kts | 103° |
| 2026-04-26 08:20 | 33.27456 | -113.04921 | 18734 ft | 393 kts | 98° |
| 2026-04-26 08:21 | 33.27467 | -113.01627 | 18487 ft | 395 kts | 95° |
| 2026-04-26 08:21 | 33.27554 | -112.98372 | 18241 ft | 394 kts | 93° |
| 2026-04-26 08:21 | 33.27667 | -112.95104 | 17992 ft | 391 kts | 93° |
| 2026-04-26 08:21 | 33.27779 | -112.91914 | 17748 ft | 386 kts | 94° |
| 2026-04-26 08:22 | 33.27880 | -112.88728 | 17480 ft | 381 kts | 94° |
| 2026-04-26 08:22 | 33.27970 | -112.85619 | 17174 ft | 374 kts | 94° |
| 2026-04-26 08:22 | 33.28052 | -112.82530 | 17021 ft | 371 kts | 94° |
| 2026-04-26 08:22 | 33.28197 | -112.79414 | 17013 ft | 374 kts | 90° |
| 2026-04-26 08:23 | 33.28463 | -112.76352 | 17023 ft | 375 kts | 88° |
| 2026-04-26 08:23 | 33.28793 | -112.73236 | 17014 ft | 374 kts | 87° |
| 2026-04-26 08:23 | 33.29128 | -112.70153 | 17020 ft | 375 kts | 88° |
| 2026-04-26 08:23 | 33.29449 | -112.67079 | 16995 ft | 374 kts | 88° |
| 2026-04-26 08:24 | 33.29758 | -112.64010 | 16684 ft | 370 kts | 88° |
| 2026-04-26 08:24 | 33.30052 | -112.60950 | 16162 ft | 370 kts | 88° |
| 2026-04-26 08:24 | 33.30334 | -112.57937 | 15670 ft | 369 kts | 89° |
| 2026-04-26 08:24 | 33.30615 | -112.54903 | 15210 ft | 367 kts | 89° |
| 2026-04-26 08:25 | 33.30893 | -112.51887 | 14734 ft | 365 kts | 89° |
| 2026-04-26 08:25 | 33.31171 | -112.48857 | 14255 ft | 363 kts | 89° |
| 2026-04-26 08:25 | 33.31443 | -112.45894 | 13806 ft | 360 kts | 89° |
| 2026-04-26 08:25 | 33.31714 | -112.42944 | 13342 ft | 357 kts | 89° |
| 2026-04-26 08:26 | 33.31984 | -112.40002 | 12881 ft | 353 kts | 89° |
| 2026-04-26 08:26 | 33.32248 | -112.37109 | 12454 ft | 350 kts | 89° |
| 2026-04-26 08:26 | 33.32510 | -112.34235 | 12002 ft | 347 kts | 89° |
| 2026-04-26 08:26 | 33.32767 | -112.31417 | 11557 ft | 343 kts | 89° |
| 2026-04-26 08:27 | 33.33025 | -112.28602 | 11109 ft | 339 kts | 90° |
| 2026-04-26 08:27 | 33.33280 | -112.25806 | 10676 ft | 335 kts | 89° |
| 2026-04-26 08:27 | 33.33528 | -112.23078 | 10260 ft | 330 kts | 89° |
| 2026-04-26 08:27 | 33.33773 | -112.20382 | 9979 ft | 321 kts | 89° |
| 2026-04-26 08:28 | 33.34013 | -112.17767 | 9652 ft | 310 kts | 90° |
| 2026-04-26 08:28 | 33.34240 | -112.15252 | 9280 ft | 301 kts | 90° |
| 2026-04-26 08:28 | 33.34460 | -112.12833 | 9175 ft | 283 kts | 90° |
| 2026-04-26 08:28 | 33.34666 | -112.10565 | 9095 ft | 266 kts | 91° |
| 2026-04-26 08:29 | 33.34766 | -112.08441 | 8982 ft | 251 kts | 97° |
| 2026-04-26 08:29 | 33.34749 | -112.06381 | 8711 ft | 245 kts | 98° |
| 2026-04-26 08:29 | 33.34710 | -112.04341 | 8429 ft | 247 kts | 98° |
| 2026-04-26 08:29 | 33.34670 | -112.02276 | 8165 ft | 252 kts | 97° |
| 2026-04-26 08:30 | 33.34641 | -112.00188 | 7891 ft | 250 kts | 97° |
| 2026-04-26 08:30 | 33.34618 | -111.98116 | 7621 ft | 248 kts | 97° |
| 2026-04-26 08:30 | 33.34594 | -111.96058 | 7350 ft | 247 kts | 97° |
| 2026-04-26 08:30 | 33.34569 | -111.94028 | 7086 ft | 245 kts | 97° |
| 2026-04-26 08:31 | 33.34558 | -111.92015 | 6997 ft | 242 kts | 95° |
| 2026-04-26 08:31 | 33.34602 | -111.89977 | 6998 ft | 247 kts | 94° |
| 2026-04-26 08:31 | 33.34664 | -111.87904 | 6865 ft | 250 kts | 93° |
| 2026-04-26 08:31 | 33.34723 | -111.85851 | 6624 ft | 247 kts | 93° |
| 2026-04-26 08:32 | 33.34774 | -111.83813 | 6384 ft | 245 kts | 93° |
| 2026-04-26 08:32 | 33.34821 | -111.81778 | 6143 ft | 243 kts | 93° |
| 2026-04-26 08:32 | 33.34866 | -111.79764 | 5902 ft | 242 kts | 92° |
| 2026-04-26 08:32 | 33.34911 | -111.77762 | 5662 ft | 241 kts | 93° |
| 2026-04-26 08:33 | 33.34954 | -111.75753 | 5421 ft | 241 kts | 92° |
| 2026-04-26 08:33 | 33.34999 | -111.73744 | 5178 ft | 240 kts | 92° |
| 2026-04-26 08:33 | 33.35045 | -111.71755 | 4939 ft | 239 kts | 92° |
| 2026-04-26 08:33 | 33.35128 | -111.69762 | 4697 ft | 242 kts | 84° |
| 2026-04-26 08:34 | 33.35772 | -111.67934 | 4457 ft | 245 kts | 51° |
| 2026-04-26 08:34 | 33.37153 | -111.66737 | 4216 ft | 245 kts | 21° |
| 2026-04-26 08:34 | 33.38799 | -111.66277 | 4047 ft | 239 kts | 2° |
| 2026-04-26 08:34 | 33.40375 | -111.66498 | 4040 ft | 219 kts | 334° |
| 2026-04-26 08:35 | 33.41562 | -111.67489 | 4048 ft | 201 kts | 307° |
| 2026-04-26 08:35 | 33.42377 | -111.68788 | 4045 ft | 193 kts | 295° |
| 2026-04-26 08:35 | 33.42822 | -111.70233 | 4056 ft | 179 kts | 274° |
| 2026-04-26 08:35 | 33.42949 | -111.71688 | 4046 ft | 175 kts | 271° |
| 2026-04-26 08:36 | 33.43089 | -111.73132 | 4050 ft | 170 kts | 272° |
| 2026-04-26 08:36 | 33.43257 | -111.74520 | 4044 ft | 167 kts | 273° |
| 2026-04-26 08:36 | 33.43422 | -111.75887 | 4043 ft | 166 kts | 272° |
| 2026-04-26 08:36 | 33.43581 | -111.77253 | 4043 ft | 167 kts | 272° |
| 2026-04-26 08:37 | 33.43739 | -111.78621 | 4042 ft | 166 kts | 272° |
| 2026-04-26 08:37 | 33.43899 | -111.79990 | 4051 ft | 162 kts | 273° |
| 2026-04-26 08:37 | 33.44054 | -111.81287 | 4041 ft | 155 kts | 272° |
| 2026-04-26 08:37 | 33.44178 | -111.82567 | 4039 ft | 153 kts | 268° |
| 2026-04-26 08:38 | 33.44202 | -111.83829 | 3925 ft | 153 kts | 264° |
| 2026-04-26 08:38 | 33.44161 | -111.85113 | 3604 ft | 154 kts | 263° |
| 2026-04-26 08:38 | 33.44117 | -111.86358 | 3323 ft | 146 kts | 263° |
| 2026-04-26 08:38 | 33.44096 | -111.87552 | 3101 ft | 144 kts | 269° |
| 2026-04-26 08:39 | 33.44349 | -111.88724 | 2955 ft | 149 kts | 280° |
| 2026-04-26 08:39 | 33.44471 | -111.89919 | 2761 ft | 142 kts | 264° |
| 2026-04-26 08:39 | 33.44306 | -111.91097 | 2681 ft | 142 kts | 255° |
| 2026-04-26 08:39 | 33.44136 | -111.92254 | 2738 ft | 141 kts | 258° |
| 2026-04-26 08:40 | 33.44042 | -111.93404 | 2460 ft | 144 kts | 265° |
| 2026-04-26 08:40 | 33.44071 | -111.94601 | 2117 ft | 144 kts | 269° |
| 2026-04-26 08:40 | 33.44089 | -111.95756 | 1908 ft | 135 kts | 266° |
| 2026-04-26 08:40 | 33.44063 | -111.96905 | 1693 ft | 139 kts | 266° |
| 2026-04-26 08:41 | 33.44069 | -111.98055 | 1500 ft | 141 kts | 268° |
| 2026-04-26 08:41 | 33.44079 | -111.99226 | 1228 ft | 140 kts | 268° |
| 2026-04-26 08:41 | 33.44082 | -112.00375 | 1134 ft | 130 kts | 267° |
| 2026-04-26 08:41 | 33.44083 | -112.01286 | 1130 ft | 87 kts | 267° |
| 2026-04-26 08:42 | 33.44082 | -112.01861 | 1124 ft | 52 kts | 271° |
| 2026-04-26 08:42 | 33.44082 | -112.02245 | 1122 ft | 39 kts | 268° |
| 2026-04-26 08:42 | 33.44083 | -112.02558 | 1121 ft | 37 kts | 269° |
| 2026-04-26 08:42 | 33.44076 | -112.02799 | 1118 ft | 19 kts | 245° |
| 2026-04-26 08:43 | 33.43981 | -112.02794 | 1118 ft | 16 kts | 104° |
| 2026-04-26 08:43 | 33.43977 | -112.02663 | 1121 ft | 14 kts | 90° |
| 2026-04-26 08:43 | 33.43977 | -112.02541 | 1121 ft | 15 kts | 90° |
| 2026-04-26 08:43 | 33.43975 | -112.02412 | 1121 ft | 15 kts | 91° |
| 2026-04-26 08:44 | 33.43979 | -112.02287 | 1122 ft | 14 kts | 89° |
| 2026-04-26 08:44 | 33.43979 | -112.02172 | 1124 ft | 13 kts | 90° |
| 2026-04-26 08:44 | 33.43979 | -112.02063 | 1124 ft | 13 kts | 90° |
| 2026-04-26 08:44 | 33.43978 | -112.01951 | 1124 ft | 13 kts | 91° |
| 2026-04-26 08:45 | 33.43976 | -112.01837 | 1124 ft | 13 kts | 94° |
| 2026-04-26 08:45 | 33.43919 | -112.01760 | 1125 ft | 12 kts | 132° |
| 2026-04-26 08:45 | 33.43901 | -112.01672 | 1127 ft | 10 kts | 90° |
| 2026-04-26 08:45 | 33.43901 | -112.01582 | 1127 ft | 12 kts | 90° |
| 2026-04-26 08:46 | 33.43901 | -112.01454 | 1128 ft | 16 kts | 90° |
| 2026-04-26 08:46 | 33.43900 | -112.01323 | 1130 ft | 15 kts | 91° |
| 2026-04-26 08:46 | 33.43903 | -112.01198 | 1130 ft | 15 kts | 89° |
| 2026-04-26 08:46 | 33.43904 | -112.01070 | 1130 ft | 15 kts | 89° |
| 2026-04-26 08:47 | 33.43904 | -112.00941 | 1130 ft | 15 kts | 90° |
| 2026-04-26 08:47 | 33.43902 | -112.00812 | 1131 ft | 14 kts | 91° |
| 2026-04-26 08:47 | 33.43899 | -112.00695 | 1133 ft | 13 kts | 91° |
| 2026-04-26 08:47 | 33.43898 | -112.00578 | 1133 ft | 13 kts | 84° |
| 2026-04-26 08:48 | 33.43904 | -112.00462 | 1133 ft | 14 kts | 90° |
| 2026-04-26 08:48 | 33.43903 | -112.00343 | 1133 ft | 14 kts | 90° |
| 2026-04-26 08:48 | 33.43902 | -112.00247 | 1133 ft | 5 kts | 91° |
| 2026-04-26 08:48 | 33.43897 | -112.00202 | 1133 ft | 4 kts | 102° |
| 2026-04-26 08:49 | 33.43876 | -112.00176 | 1133 ft | 4 kts | 162° |
| 2026-04-26 08:49 | 33.43854 | -112.00174 | 1133 ft | 0 kts | 178° |
| 2026-04-26 08:49 | 33.43851 | -112.00174 | 1133 ft | 1 kts | 178° |
| 2026-04-26 08:49 | 33.43830 | -112.00173 | 1133 ft | 3 kts | 180° |
| 2026-04-26 08:50 | 33.43823 | -112.00174 | 1133 ft | 0 kts | 181° |